Wetterstation Vordersexau
Wetterdaten: August 2016
Datum Temp. A. Feuchte A. Luftdruck Regen Wind Richtung Taupunkt Windchill Windben
02.08.2016 18,3 C 74 % 1016,3 hPa 6,2 l/m 3,4 km/h O-SO 13,5 C 17,9 C 1,9 km/h
03.08.2016 21,8 C 64 % 1013,7 hPa 0,0 l/m 4,7 km/h O-SO 14,0 C 21,5 C 2,6 km/h
04.08.2016 20,1 C 71 % 1011,2 hPa 10,9 l/m 0,8 km/h SO 14,1 C 20,0 C 0,4 km/h
05.08.2016 17,2 C 77 % 1017,0 hPa 2,6 l/m 2,2 km/h N-NW 13,0 C 16,9 C 1,2 km/h
06.08.2016 20,0 C 64 % 1023,7 hPa 0,0 l/m 1,2 km/h O-SO 12,2 C 19,9 C 0,7 km/h
07.08.2016 21,6 C 63 % 1024,5 hPa 0,0 l/m 0,0 km/h W 13,5 C 21,6 C 0,0 km/h
08.08.2016 22,9 C 63 % 1019,0 hPa 0,0 l/m 0,7 km/h SO 14,8 C 22,9 C 0,4 km/h
09.08.2016 18,7 C 71 % 1018,4 hPa 1,6 l/m 1,0 km/h SO 13,0 C 18,6 C 0,6 km/h
10.08.2016 16,2 C 68 % 1018,8 hPa 2,6 l/m 1,7 km/h O-NO 9,5 C 16,1 C 1,0 km/h
11.08.2016 16,4 C 64 % 1022,0 hPa 0,5 l/m 1,7 km/h N-NO 8,8 C 16,3 C 1,0 km/h
12.08.2016 20,5 C 63 % 1023,2 hPa 0,0 l/m 2,2 km/h SO 12,4 C 20,5 C 1,2 km/h
13.08.2016 23,4 C 61 % 1021,2 hPa 0,0 l/m 0,8 km/h N-NO 14,3 C 23,4 C 0,4 km/h
14.08.2016 24,1 C 62 % 1018,9 hPa 0,0 l/m 0,7 km/h N-NO 15,6 C 24,1 C 0,4 km/h
15.08.2016 24,4 C 63 % 1016,6 hPa 0,0 l/m 0,4 km/h W-NW 16,0 C 24,4 C 0,2 km/h
16.08.2016 23,4 C 63 % 1013,0 hPa 0,0 l/m 1,1 km/h N-NO 15,1 C 23,4 C 0,6 km/h
17.08.2016 22,0 C 67 % 1009,4 hPa 0,0 l/m 1,0 km/h W-SW 15,0 C 21,9 C 0,6 km/h
18.08.2016 18,7 C 78 % 1008,3 hPa 0,5 l/m 2,6 km/h N-NW 14,7 C 18,4 C 1,5 km/h
19.08.2016 21,1 C 67 % 1009,4 hPa 0,0 l/m 3,3 km/h W 14,3 C 20,8 C 1,8 km/h
20.08.2016 17,6 C 79 % 1012,7 hPa 5,2 l/m 1,3 km/h SO 13,9 C 17,4 C 0,7 km/h
21.08.2016 17,3 C 65 % 1019,5 hPa 0,0 l/m 6,5 km/h W 10,3 C 16,5 C 3,6 km/h
22.08.2016 20,5 C 62 % 1025,2 hPa 0,0 l/m 0,5 km/h SO 11,8 C 20,5 C 0,3 km/h
23.08.2016 22,8 C 65 % 1023,2 hPa 0,0 l/m 1,9 km/h NO 14,9 C 22,8 C 1,1 km/h
24.08.2016 24,5 C 64 % 1018,4 hPa 0,0 l/m 1,1 km/h NO 16,3 C 24,5 C 0,6 km/h
25.08.2016 26,1 C 58 % 1014,7 hPa 0,0 l/m 0,4 km/h O-SO 15,5 C 26,1 C 0,2 km/h
26.08.2016 27,3 C 57 % 1014,4 hPa 0,0 l/m 1,4 km/h NW 16,3 C 27,3 C 0,8 km/h
27.08.2016 18,1 C 78 % 1015,0 hPa 0,0 l/m 0,0 km/h NO 14,3 C 18,1 C 0,0 km/h
Min-Datum 11.08.16 25.08.16 18.08.16 8 Tage 02.08.16 - 11.08.16 11.08.16 02.08.16
Min-Zeit 05:56 17:55 05:56 - 03:56 - 05:56 05:56 03:56
Minimum 6,6 C 24 % 1007,3 hPa - 0,0 km/h - 4,3 C 6,6 C 0,0 km/h
Max-Datum 25.08.16 11.08.16 07.08.16 04.08.16 21.08.16 - 24.08.16 25.08.16 21.08.16
Max-Zeit 17:55 04:56 08:56 18:56 10:56 - 16:55 17:55 10:56
Maximum 41,9 C 85 % 1026,7 hPa 10,9 l/m 26,6 km/h
W
- 20,9 C 41,9 C 14,8 km/h
W
Durchschnitt 21,0 C 67 % 1017,2 hPa #30,0 l/m 1,6 km/h W 13,7 C 20,8 C 0,9 km/h

Durchschnitt Minimum Temp.13,0 C
Durchschnitt Maximum Temp.31,3 C
www.sexauwetter.de